Time;durP1;ratioP1;P1;durP2;ratioP2;P2;SDS_P1;SDS_P2;PMS_P1;PMS_P2;Temp;Humidity;BMP_temperature;BMP_pressure;BME280_temperature;BME280_humidity;BME280_pressure;Samples;Min_cycle;Max_cycle;Signal;HPM_P1;HPM_P2
2021/12/31 00:01:05;;;;;;;;;;;25.10;99.90;;;;;;5075333;28;20413;-72
2021/12/31 00:03:32;;;;;;;;;;;25.20;99.90;;;;;;5075361;28;20013;-71
2021/12/31 00:05:58;;;;;;;;;;;25.30;99.90;;;;;;5074847;28;19908;-70
2021/12/31 00:08:25;;;;;;;;;;;25.30;99.90;;;;;;5075123;28;19909;-71
2021/12/31 00:10:56;;;;;;;;;;;25.40;99.90;;;;;;5075330;28;20371;-71
2021/12/31 00:13:23;;;;;;;;;;;25.40;99.90;;;;;;5075053;28;19923;-71
2021/12/31 00:15:50;;;;;;;;;;;25.40;99.90;;;;;;5074988;28;20278;-71
2021/12/31 00:18:16;;;;;;;;;;;25.40;99.90;;;;;;5075200;28;19916;-71
2021/12/31 00:20:43;;;;;;;;;;;25.50;99.90;;;;;;5074874;28;19909;-71
2021/12/31 00:23:12;;;;;;;;;;;25.50;99.90;;;;;;5074626;28;19951;-71
2021/12/31 00:25:40;;;;;;;;;;;25.70;99.90;;;;;;5074972;28;19989;-71
2021/12/31 00:28:07;;;;;;;;;;;25.80;99.90;;;;;;5074632;28;19909;-72
2021/12/31 00:30:35;;;;;;;;;;;25.90;99.90;;;;;;5074790;28;19913;-71
2021/12/31 00:33:02;;;;;;;;;;;26.10;99.90;;;;;;5074596;28;19916;-71
2021/12/31 00:35:32;;;;;;;;;;;26.00;99.90;;;;;;5074569;28;20323;-70
2021/12/31 00:37:58;;;;;;;;;;;26.00;99.90;;;;;;5074480;28;20428;-71
2021/12/31 00:40:28;;;;;;;;;;;26.10;99.90;;;;;;5074877;28;19908;-71
2021/12/31 00:42:55;;;;;;;;;;;26.20;99.90;;;;;;5074700;28;19995;-71
2021/12/31 00:45:24;;;;;;;;;;;26.40;99.90;;;;;;5074529;28;19912;-71
2021/12/31 00:47:51;;;;;;;;;;;26.70;99.90;;;;;;5074362;28;20275;-71
2021/12/31 00:50:18;;;;;;;;;;;27.00;99.90;;;;;;5073499;28;19954;-71
2021/12/31 00:52:44;;;;;;;;;;;27.40;99.90;;;;;;5074408;28;19928;-71
2021/12/31 00:55:11;;;;;;;;;;;28.00;99.90;;;;;;5074435;28;19908;-71
2021/12/31 00:57:39;;;;;;;;;;;28.30;99.60;;;;;;5074207;28;19908;-71
2021/12/31 01:00:06;;;;;;;;;;;28.10;99.50;;;;;;5074004;28;20848;-71
2021/12/31 01:02:33;;;;;;;;;;;28.20;99.50;;;;;;5074095;28;19909;-71
2021/12/31 01:05:00;;;;;;;;;;;28.10;99.50;;;;;;5074199;28;19908;-71
2021/12/31 01:07:27;;;;;;;;;;;28.20;99.40;;;;;;5074071;28;19920;-71
2021/12/31 01:09:55;;;;;;;;;;;28.10;99.50;;;;;;5073657;28;19924;-71
2021/12/31 01:12:23;;;;;;;;;;;28.00;99.80;;;;;;5073821;28;19912;-71
2021/12/31 01:17:52;;;;;;;;;;;28.30;99.30;;;;;;5073948;28;19954;-71
2021/12/31 01:20:20;;;;;;;;;;;28.30;99.00;;;;;;5073691;28;19909;-71
2021/12/31 01:22:47;;;;;;;;;;;28.10;99.70;;;;;;5073786;28;19909;-71
2021/12/31 01:25:13;;;;;;;;;;;28.00;99.50;;;;;;5073721;28;19916;-71
2021/12/31 01:27:40;;;;;;;;;;;28.30;99.30;;;;;;5073681;28;20351;-71
2021/12/31 01:30:09;;;;;;;;;;;28.50;98.80;;;;;;5073319;28;19918;-70
2021/12/31 01:32:36;;;;;;;;;;;28.60;98.80;;;;;;5072204;28;19916;-71
2021/12/31 01:35:03;;;;;;;;;;;28.30;99.20;;;;;;5073538;28;20290;-71
2021/12/31 01:37:30;;;;;;;;;;;28.40;98.80;;;;;;5073493;28;19909;-71
2021/12/31 01:39:56;;;;;;;;;;;28.40;98.70;;;;;;5073162;28;19995;-71
2021/12/31 01:42:30;;;;;;;;;;;28.30;99.30;;;;;;5073441;28;19908;-71
2021/12/31 01:45:01;;;;;;;;;;;28.30;99.20;;;;;;5073415;28;19913;-71
2021/12/31 01:48:22;;;;;;;;;;;28.40;99.30;;;;;;5073329;28;20421;-71
2021/12/31 01:50:15;;;;;;;;;;;28.40;99.50;;;;;;5075885;28;20367;-72
2021/12/31 01:52:42;;;;;;;;;;;28.30;99.40;;;;;;5073112;28;19952;-71
2021/12/31 01:55:12;;;;;;;;;;;28.20;99.70;;;;;;5073286;28;20286;-71
2021/12/31 01:57:40;;;;;;;;;;;28.10;99.70;;;;;;5073203;28;20403;-71
2021/12/31 02:00:08;;;;;;;;;;;27.70;99.90;;;;;;5072983;28;19958;-71
2021/12/31 02:02:35;;;;;;;;;;;27.20;99.90;;;;;;5072841;28;19919;-71
2021/12/31 02:05:02;;;;;;;;;;;27.00;99.90;;;;;;5072829;28;19916;-71
2021/12/31 02:07:29;;;;;;;;;;;26.70;99.90;;;;;;5073036;28;19916;-71
2021/12/31 02:09:55;;;;;;;;;;;26.60;99.90;;;;;;5072475;28;19963;-71
2021/12/31 02:12:22;;;;;;;;;;;26.60;99.90;;;;;;5072705;28;20367;-71
2021/12/31 02:14:52;;;;;;;;;;;26.70;99.90;;;;;;5072895;28;19948;-71
2021/12/31 02:17:20;;;;;;;;;;;26.80;99.90;;;;;;5072829;28;19909;-71
2021/12/31 02:19:56;;;;;;;;;;;26.80;99.90;;;;;;5072560;28;20053;-70
2021/12/31 02:22:27;;;;;;;;;;;26.70;99.90;;;;;;5072825;28;19916;-71
2021/12/31 02:24:55;;;;;;;;;;;26.50;99.90;;;;;;5072831;28;20370;-71
2021/12/31 02:27:22;;;;;;;;;;;26.60;99.90;;;;;;5072537;28;20362;-71
2021/12/31 02:29:49;;;;;;;;;;;26.70;99.90;;;;;;5072355;28;19909;-71
2021/12/31 02:32:16;;;;;;;;;;;26.90;99.90;;;;;;5072670;28;19915;-71
2021/12/31 02:34:43;;;;;;;;;;;26.70;99.90;;;;;;5072498;28;20381;-71
2021/12/31 02:37:09;;;;;;;;;;;26.60;99.90;;;;;;5072613;28;20374;-71
2021/12/31 02:39:39;;;;;;;;;;;26.50;99.90;;;;;;5072554;28;20377;-71
2021/12/31 02:42:08;;;;;;;;;;;26.50;99.90;;;;;;5072394;28;20269;-71
2021/12/31 02:44:36;;;;;;;;;;;26.40;99.90;;;;;;5072520;28;19913;-71
2021/12/31 02:47:05;;;;;;;;;;;26.30;99.90;;;;;;5072546;28;19909;-71
2021/12/31 02:49:39;;;;;;;;;;;26.50;99.90;;;;;;5072567;28;20390;-71
2021/12/31 02:52:07;;;;;;;;;;;26.50;99.90;;;;;;5072319;28;19913;-71
2021/12/31 02:54:37;;;;;;;;;;;26.50;99.90;;;;;;5072542;28;19923;-70
2021/12/31 02:57:04;;;;;;;;;;;26.40;99.90;;;;;;5072481;28;20330;-70
2021/12/31 02:59:31;;;;;;;;;;;26.40;99.90;;;;;;5072481;28;19908;-70
2021/12/31 03:01:58;;;;;;;;;;;26.40;99.90;;;;;;5071848;28;19908;-70
2021/12/31 03:04:26;;;;;;;;;;;26.40;99.90;;;;;;5072209;28;19995;-71
2021/12/31 03:06:53;;;;;;;;;;;26.50;99.90;;;;;;5072497;28;19915;-70
2021/12/31 03:09:23;;;;;;;;;;;26.50;99.90;;;;;;5072195;28;20083;-70
2021/12/31 03:11:54;;;;;;;;;;;26.40;99.90;;;;;;5072346;28;20322;-71
2021/12/31 03:14:22;;;;;;;;;;;26.40;99.90;;;;;;5075827;28;19962;-71
2021/12/31 03:16:49;;;;;;;;;;;26.40;99.90;;;;;;5076227;28;20000;-71
2021/12/31 03:19:17;;;;;;;;;;;26.40;99.90;;;;;;5076055;28;19978;-71
2021/12/31 03:21:44;;;;;;;;;;;26.20;99.90;;;;;;5075999;28;20375;-70
2021/12/31 03:24:10;;;;;;;;;;;26.20;99.90;;;;;;5076037;28;19909;-69
2021/12/31 03:26:37;;;;;;;;;;;26.30;99.90;;;;;;5074845;28;20007;-69
2021/12/31 03:29:04;;;;;;;;;;;26.40;99.90;;;;;;5076059;28;19908;-69
2021/12/31 03:31:31;;;;;;;;;;;26.40;99.90;;;;;;5075956;28;20280;-69
2021/12/31 03:33:58;;;;;;;;;;;26.20;99.90;;;;;;5075710;28;19924;-71
2021/12/31 03:36:24;;;;;;;;;;;26.10;99.90;;;;;;5075899;28;19999;-70
2021/12/31 03:38:51;;;;;;;;;;;26.00;99.90;;;;;;5075763;28;19912;-69
2021/12/31 03:41:18;;;;;;;;;;;26.00;99.90;;;;;;5075866;27;20003;-69
2021/12/31 03:43:46;;;;;;;;;;;26.10;99.90;;;;;;5075522;28;19912;-69
2021/12/31 03:46:13;;;;;;;;;;;26.10;99.90;;;;;;5075697;28;20054;-70
2021/12/31 03:48:40;;;;;;;;;;;26.10;99.90;;;;;;5075329;28;19909;-69
2021/12/31 03:51:07;;;;;;;;;;;26.20;99.90;;;;;;5075337;28;19953;-70
2021/12/31 03:53:34;;;;;;;;;;;26.20;99.90;;;;;;5075427;28;20461;-70
2021/12/31 03:56:00;;;;;;;;;;;26.00;99.90;;;;;;5075547;28;19993;-69
2021/12/31 03:58:27;;;;;;;;;;;26.00;99.90;;;;;;5075637;28;19944;-70
2021/12/31 04:00:54;;;;;;;;;;;26.00;99.90;;;;;;5075409;28;19908;-71
2021/12/31 04:03:20;;;;;;;;;;;26.00;99.90;;;;;;5075259;28;19997;-70
2021/12/31 04:05:49;;;;;;;;;;;26.00;99.90;;;;;;5075044;28;19909;-70
2021/12/31 04:08:16;;;;;;;;;;;26.10;99.90;;;;;;5075286;28;20004;-70
2021/12/31 04:10:43;;;;;;;;;;;26.10;99.90;;;;;;5075209;28;19943;-70
2021/12/31 04:13:09;;;;;;;;;;;26.00;99.90;;;;;;5075031;28;19917;-70
2021/12/31 04:15:36;;;;;;;;;;;26.00;99.90;;;;;;5075163;28;19940;-70
2021/12/31 04:18:03;;;;;;;;;;;25.90;99.90;;;;;;5074839;28;19908;-71
2021/12/31 04:23:30;;;;;;;;;;;25.90;99.90;;;;;;5075404;28;20271;-70
2021/12/31 04:25:54;;;;;;;;;;;25.80;99.90;;;;;;5073627;28;20291;-69
2021/12/31 04:28:21;;;;;;;;;;;25.80;99.90;;;;;;5074747;28;20389;-70
2021/12/31 04:30:48;;;;;;;;;;;25.80;99.90;;;;;;5074788;28;20011;-70
2021/12/31 04:33:14;;;;;;;;;;;25.80;99.90;;;;;;5074609;28;19920;-69
2021/12/31 04:35:44;;;;;;;;;;;25.80;99.90;;;;;;5074660;28;19908;-70
2021/12/31 04:38:11;;;;;;;;;;;25.90;99.90;;;;;;5106949;28;19916;-69
2021/12/31 04:40:38;;;;;;;;;;;25.90;99.90;;;;;;5074690;28;19948;-69
2021/12/31 04:43:04;;;;;;;;;;;25.80;99.90;;;;;;5074487;28;20382;-70
2021/12/31 04:45:31;;;;;;;;;;;25.90;99.90;;;;;;5074573;28;19950;-69
2021/12/31 04:47:58;;;;;;;;;;;25.90;99.90;;;;;;5074196;28;19912;-69
2021/12/31 04:50:24;;;;;;;;;;;25.90;99.90;;;;;;5073045;28;20275;-70
2021/12/31 04:52:51;;;;;;;;;;;25.90;99.90;;;;;;5074372;28;19912;-69
2021/12/31 04:55:18;;;;;;;;;;;25.90;99.90;;;;;;5074395;28;19908;-69
2021/12/31 04:57:48;;;;;;;;;;;25.80;99.90;;;;;;5074255;28;19991;-70
2021/12/31 05:00:15;;;;;;;;;;;25.70;99.90;;;;;;5074539;28;20290;-69
2021/12/31 05:02:42;;;;;;;;;;;25.70;99.90;;;;;;5074175;28;19915;-69
2021/12/31 05:05:08;;;;;;;;;;;25.70;99.90;;;;;;5074293;28;19915;-69
2021/12/31 05:07:35;;;;;;;;;;;25.80;99.90;;;;;;5074150;28;19948;-70
2021/12/31 05:10:02;;;;;;;;;;;25.70;99.90;;;;;;5073733;28;19921;-69
2021/12/31 05:12:31;;;;;;;;;;;25.70;99.90;;;;;;5073898;28;19913;-70
2021/12/31 05:15:00;;;;;;;;;;;25.60;99.90;;;;;;5074025;28;19931;-68
2021/12/31 05:17:27;;;;;;;;;;;25.50;99.90;;;;;;5073733;28;19909;-69
2021/12/31 05:19:54;;;;;;;;;;;25.50;99.90;;;;;;5073649;28;19916;-69
2021/12/31 05:22:21;;;;;;;;;;;25.50;99.90;;;;;;5073844;28;19908;-70
2021/12/31 05:24:47;;;;;;;;;;;25.50;99.90;;;;;;5073916;28;20007;-70
2021/12/31 05:27:14;;;;;;;;;;;25.50;99.90;;;;;;5073923;28;20278;-69
2021/12/31 05:29:40;;;;;;;;;;;25.50;99.90;;;;;;5073744;28;19916;-71
2021/12/31 05:32:07;;;;;;;;;;;25.50;99.90;;;;;;5073165;28;19917;-69
2021/12/31 05:34:34;;;;;;;;;;;25.40;99.90;;;;;;5072078;28;19913;-69
2021/12/31 05:37:01;;;;;;;;;;;25.40;99.90;;;;;;5073050;28;19920;-70
2021/12/31 05:39:27;;;;;;;;;;;25.30;99.90;;;;;;5073182;28;19915;-71
2021/12/31 05:41:55;;;;;;;;;;;25.20;99.90;;;;;;5073308;28;20159;-70
2021/12/31 05:44:22;;;;;;;;;;;25.30;99.90;;;;;;5073473;28;20049;-70
2021/12/31 05:46:50;;;;;;;;;;;25.20;99.90;;;;;;5073288;28;20351;-70
2021/12/31 05:49:17;;;;;;;;;;;25.10;99.90;;;;;;5073214;28;19916;-69
2021/12/31 05:51:44;;;;;;;;;;;24.90;99.90;;;;;;5103680;28;20333;-69
2021/12/31 05:54:11;;;;;;;;;;;24.90;99.90;;;;;;5070897;28;19920;-70
2021/12/31 05:56:37;;;;;;;;;;;24.90;99.90;;;;;;5070972;28;19912;-70
2021/12/31 05:59:04;;;;;;;;;;;25.00;99.90;;;;;;5070837;28;19913;-70
2021/12/31 06:01:31;;;;;;;;;;;25.00;99.90;;;;;;5070954;28;19919;-70
2021/12/31 06:03:57;;;;;;;;;;;25.00;99.90;;;;;;5070282;28;20701;-71
2021/12/31 06:06:24;;;;;;;;;;;25.00;99.90;;;;;;5071024;28;19915;-71
2021/12/31 06:08:51;;;;;;;;;;;25.00;99.90;;;;;;5069348;28;19965;-70
2021/12/31 06:11:18;;;;;;;;;;;25.00;99.90;;;;;;5070941;28;19916;-70
2021/12/31 06:13:54;;;;;;;;;;;24.90;99.90;;;;;;5069848;28;21500;-70
2021/12/31 06:16:21;;;;;;;;;;;24.80;99.90;;;;;;5070923;28;19915;-70
2021/12/31 06:18:48;;;;;;;;;;;24.80;99.90;;;;;;5070241;28;20299;-70
2021/12/31 06:21:14;;;;;;;;;;;24.70;99.90;;;;;;5070887;28;19916;-71
2021/12/31 06:23:41;;;;;;;;;;;24.70;99.90;;;;;;5070600;28;19989;-71
2021/12/31 06:26:09;;;;;;;;;;;24.60;99.90;;;;;;5070600;28;19908;-71
2021/12/31 06:28:36;;;;;;;;;;;24.60;99.90;;;;;;5070585;28;19937;-70
2021/12/31 06:31:03;;;;;;;;;;;24.50;99.90;;;;;;5068957;28;19963;-70
2021/12/31 06:33:30;;;;;;;;;;;24.30;99.90;;;;;;5070414;28;19916;-70
2021/12/31 06:35:56;;;;;;;;;;;24.40;99.90;;;;;;5070615;28;19909;-70
2021/12/31 06:38:23;;;;;;;;;;;24.30;99.90;;;;;;5070723;28;19962;-70
2021/12/31 06:40:50;;;;;;;;;;;24.30;99.90;;;;;;5070537;28;20283;-71
2021/12/31 06:43:16;;;;;;;;;;;24.40;99.90;;;;;;5070209;28;19912;-70
2021/12/31 06:45:43;;;;;;;;;;;24.60;99.90;;;;;;5070611;28;19913;-71
2021/12/31 06:48:10;;;;;;;;;;;24.60;99.90;;;;;;5069827;28;20325;-70
2021/12/31 06:50:36;;;;;;;;;;;24.50;99.90;;;;;;5070307;28;19944;-70
2021/12/31 06:53:03;;;;;;;;;;;24.40;99.90;;;;;;5070220;28;19962;-70
2021/12/31 06:55:30;;;;;;;;;;;24.30;99.90;;;;;;5070424;28;19989;-70
2021/12/31 06:57:57;;;;;;;;;;;24.20;99.90;;;;;;5070049;28;19954;-70
2021/12/31 07:00:24;;;;;;;;;;;24.30;99.90;;;;;;5069799;28;20319;-69
2021/12/31 07:02:50;;;;;;;;;;;24.30;99.90;;;;;;5069428;28;19919;-69
2021/12/31 07:05:17;;;;;;;;;;;24.30;99.90;;;;;;5070268;28;19912;-69
2021/12/31 07:07:44;;;;;;;;;;;24.20;99.90;;;;;;5070136;28;19912;-68
2021/12/31 07:10:10;;;;;;;;;;;24.30;99.90;;;;;;5069861;28;20070;-69
2021/12/31 07:12:37;;;;;;;;;;;24.20;99.90;;;;;;5070114;28;19931;-69
2021/12/31 07:15:04;;;;;;;;;;;24.20;99.90;;;;;;5069946;28;19913;-69
2021/12/31 07:17:30;;;;;;;;;;;24.20;99.90;;;;;;5069386;28;20274;-69
2021/12/31 07:19:57;;;;;;;;;;;24.10;99.90;;;;;;5070092;28;19919;-69
2021/12/31 07:22:24;;;;;;;;;;;24.00;99.90;;;;;;5069958;28;19951;-70
2021/12/31 07:24:51;;;;;;;;;;;24.00;99.90;;;;;;5070085;28;19909;-70
2021/12/31 07:27:17;;;;;;;;;;;24.00;99.90;;;;;;5069541;28;19912;-70
2021/12/31 07:29:44;;;;;;;;;;;23.90;99.90;;;;;;5070055;28;19935;-69
2021/12/31 07:32:11;;;;;;;;;;;23.90;99.90;;;;;;5068936;28;19913;-71
2021/12/31 07:34:37;;;;;;;;;;;23.80;99.90;;;;;;5070140;28;19913;-70
2021/12/31 07:37:04;;;;;;;;;;;23.80;99.90;;;;;;5069928;28;19977;-70
2021/12/31 07:39:32;;;;;;;;;;;23.80;99.90;;;;;;5069574;28;20337;-69
2021/12/31 07:41:59;;;;;;;;;;;23.80;99.90;;;;;;5069786;28;19920;-68
2021/12/31 07:44:26;;;;;;;;;;;23.70;99.90;;;;;;5068336;28;20560;-69
2021/12/31 07:46:52;;;;;;;;;;;23.80;99.90;;;;;;5069274;28;19962;-70
2021/12/31 07:49:19;;;;;;;;;;;23.70;99.90;;;;;;5069449;28;19930;-70
2021/12/31 07:51:46;;;;;;;;;;;23.70;99.90;;;;;;5069855;28;19916;-70
2021/12/31 07:54:12;;;;;;;;;;;23.70;99.90;;;;;;5069560;28;20259;-69
2021/12/31 07:56:42;;;;;;;;;;;23.70;99.90;;;;;;5069812;28;19955;-70
2021/12/31 07:59:09;;;;;;;;;;;23.70;99.90;;;;;;5070800;28;19912;-69
2021/12/31 08:01:35;;;;;;;;;;;23.60;99.90;;;;;;5073180;28;20367;-69
2021/12/31 08:04:02;;;;;;;;;;;23.60;99.90;;;;;;5072985;28;20360;-70
2021/12/31 08:06:29;;;;;;;;;;;23.50;99.90;;;;;;5074663;28;19908;-69
2021/12/31 08:08:55;;;;;;;;;;;23.60;99.90;;;;;;5075013;28;19999;-69
2021/12/31 08:11:22;;;;;;;;;;;23.50;99.90;;;;;;5075246;28;20244;-68
2021/12/31 08:13:49;;;;;;;;;;;23.50;99.90;;;;;;5074870;28;20062;-69
2021/12/31 08:16:15;;;;;;;;;;;23.50;99.90;;;;;;5075271;28;19908;-70
2021/12/31 08:18:42;;;;;;;;;;;23.40;99.90;;;;;;5075047;28;19909;-68
2021/12/31 08:21:09;;;;;;;;;;;23.40;99.90;;;;;;5074960;28;20464;-69
2021/12/31 08:23:36;;;;;;;;;;;23.40;99.90;;;;;;5075039;28;19909;-69
2021/12/31 08:26:05;;;;;;;;;;;23.40;99.90;;;;;;5074630;28;20283;-69
2021/12/31 08:28:31;;;;;;;;;;;23.40;99.90;;;;;;5074787;28;19909;-69
2021/12/31 08:30:58;;;;;;;;;;;23.30;99.90;;;;;;5074905;28;19988;-69
2021/12/31 08:33:26;;;;;;;;;;;23.30;99.90;;;;;;5074562;28;20283;-69
2021/12/31 08:35:55;;;;;;;;;;;23.30;99.90;;;;;;5074689;28;19941;-69
2021/12/31 08:38:22;;;;;;;;;;;23.30;99.90;;;;;;5074734;28;19940;-69
2021/12/31 08:40:49;;;;;;;;;;;23.20;99.90;;;;;;5074812;28;20003;-69
2021/12/31 08:43:15;;;;;;;;;;;23.20;99.90;;;;;;5074487;28;20352;-69
2021/12/31 08:45:42;;;;;;;;;;;23.20;99.90;;;;;;5074611;28;19908;-69
2021/12/31 08:48:09;;;;;;;;;;;23.10;99.90;;;;;;5074114;28;19908;-69
2021/12/31 08:50:36;;;;;;;;;;;23.10;99.90;;;;;;5074337;28;19909;-69
2021/12/31 08:53:03;;;;;;;;;;;23.10;99.90;;;;;;5073825;28;20439;-69
2021/12/31 08:55:30;;;;;;;;;;;23.00;99.90;;;;;;5074337;28;19908;-69
2021/12/31 08:57:57;;;;;;;;;;;23.10;99.90;;;;;;5072838;28;19909;-70
2021/12/31 09:00:23;;;;;;;;;;;23.00;99.90;;;;;;5074497;28;19951;-69
2021/12/31 09:02:50;;;;;;;;;;;22.90;99.90;;;;;;5074149;28;19909;-69
2021/12/31 09:05:17;;;;;;;;;;;23.00;99.90;;;;;;5074180;28;19908;-69
2021/12/31 09:07:44;;;;;;;;;;;23.00;99.90;;;;;;5073985;28;19908;-69
2021/12/31 09:10:11;;;;;;;;;;;22.90;99.90;;;;;;5073074;28;19920;-70
2021/12/31 09:12:38;;;;;;;;;;;22.90;99.90;;;;;;5073844;28;19922;-70
2021/12/31 09:15:05;;;;;;;;;;;22.90;99.90;;;;;;5074048;28;20359;-70
2021/12/31 09:17:32;;;;;;;;;;;22.80;99.90;;;;;;5073763;28;19912;-70
2021/12/31 09:19:59;;;;;;;;;;;22.80;99.90;;;;;;5073949;28;20003;-70
2021/12/31 09:22:27;;;;;;;;;;;22.90;99.90;;;;;;5073872;28;19920;-70
2021/12/31 09:24:54;;;;;;;;;;;22.80;99.90;;;;;;5073820;28;19970;-70
2021/12/31 09:27:21;;;;;;;;;;;22.80;99.90;;;;;;5073305;28;19944;-70
2021/12/31 09:29:48;;;;;;;;;;;22.80;99.90;;;;;;5071024;28;20020;-69
2021/12/31 09:32:14;;;;;;;;;;;22.80;99.90;;;;;;5071462;28;19923;-70
2021/12/31 09:34:43;;;;;;;;;;;22.80;99.90;;;;;;5071582;28;19952;-70
2021/12/31 09:37:10;;;;;;;;;;;22.80;99.90;;;;;;5071592;28;19995;-70
2021/12/31 09:39:37;;;;;;;;;;;22.70;99.90;;;;;;5071444;28;19916;-71
2021/12/31 09:42:05;;;;;;;;;;;22.80;99.90;;;;;;5070926;28;20025;-71
2021/12/31 09:44:35;;;;;;;;;;;22.70;99.90;;;;;;5071495;28;19909;-70
2021/12/31 09:47:07;;;;;;;;;;;22.70;99.90;;;;;;5071589;28;19909;-70
2021/12/31 09:49:38;;;;;;;;;;;22.80;99.90;;;;;;5071375;28;19913;-70
2021/12/31 09:52:05;;;;;;;;;;;22.80;99.90;;;;;;5071063;28;19912;-70
2021/12/31 09:54:31;;;;;;;;;;;22.70;99.90;;;;;;5071049;28;19916;-70
2021/12/31 09:57:00;;;;;;;;;;;22.70;99.90;;;;;;5071053;28;19908;-70
2021/12/31 09:59:27;;;;;;;;;;;22.70;99.90;;;;;;5071046;28;19954;-70
2021/12/31 10:01:53;;;;;;;;;;;22.70;99.90;;;;;;5070638;28;19944;-70
2021/12/31 10:04:22;;;;;;;;;;;22.70;99.90;;;;;;5071161;28;19908;-70
2021/12/31 10:07:06;;;;;;;;;;;22.70;99.90;;;;;;5071176;28;20306;-69
2021/12/31 10:09:38;;;;;;;;;;;22.70;99.90;;;;;;5070707;28;19920;-70
2021/12/31 10:12:05;;;;;;;;;;;22.70;99.90;;;;;;5070836;28;19913;-70
2021/12/31 10:14:36;;;;;;;;;;;22.70;99.90;;;;;;5070781;28;19922;-69
2021/12/31 10:17:04;;;;;;;;;;;22.70;99.90;;;;;;5070652;28;19915;-71
2021/12/31 10:19:31;;;;;;;;;;;22.70;99.90;;;;;;5070831;28;19915;-70
2021/12/31 10:21:58;;;;;;;;;;;22.60;99.90;;;;;;5070208;28;20327;-70
2021/12/31 10:24:35;;;;;;;;;;;22.70;99.90;;;;;;5070811;28;19969;-69
2021/12/31 10:27:04;;;;;;;;;;;22.60;99.90;;;;;;5070552;28;19909;-70
2021/12/31 10:29:30;;;;;;;;;;;22.70;99.90;;;;;;5070891;28;19987;-69
2021/12/31 10:31:58;;;;;;;;;;;22.60;99.90;;;;;;5070425;28;19915;-70
2021/12/31 10:34:36;;;;;;;;;;;22.70;99.90;;;;;;5070264;28;19921;-69
2021/12/31 10:37:04;;;;;;;;;;;22.60;99.90;;;;;;5069374;28;19919;-69
2021/12/31 10:39:37;;;;;;;;;;;22.60;99.90;;;;;;5070652;28;19919;-69
2021/12/31 10:42:06;;;;;;;;;;;22.60;99.90;;;;;;5070306;28;19913;-69
2021/12/31 10:44:41;;;;;;;;;;;22.60;99.90;;;;;;5070503;28;19913;-69
2021/12/31 10:47:10;;;;;;;;;;;22.60;99.90;;;;;;5070106;28;19969;-70
2021/12/31 10:49:57;;;;;;;;;;;22.60;99.90;;;;;;5070508;28;19917;-70
2021/12/31 10:52:26;;;;;;;;;;;22.60;99.90;;;;;;5066326;28;19909;-71
2021/12/31 10:55:04;;;;;;;;;;;22.60;99.90;;;;;;5070631;28;20370;-70
2021/12/31 10:57:35;;;;;;;;;;;22.60;99.90;;;;;;5070635;28;19965;-70
2021/12/31 11:00:02;;;;;;;;;;;22.60;99.90;;;;;;5069936;28;19938;-70
2021/12/31 11:02:28;;;;;;;;;;;22.60;99.90;;;;;;5070367;28;19919;-71
2021/12/31 11:04:55;;;;;;;;;;;22.50;99.90;;;;;;5070552;28;19955;-70
2021/12/31 11:07:22;;;;;;;;;;;22.50;99.90;;;;;;5070785;28;19944;-71
2021/12/31 11:09:49;;;;;;;;;;;22.50;99.90;;;;;;5069959;28;19928;-70
2021/12/31 11:12:16;;;;;;;;;;;22.50;99.90;;;;;;5070498;28;19909;-70
2021/12/31 11:14:43;;;;;;;;;;;22.50;99.90;;;;;;5069953;28;19923;-71
2021/12/31 11:17:09;;;;;;;;;;;22.50;99.90;;;;;;5070129;28;20302;-70
2021/12/31 11:19:39;;;;;;;;;;;22.40;99.90;;;;;;5070376;28;19916;-70
2021/12/31 11:22:06;;;;;;;;;;;22.50;99.90;;;;;;5070174;28;19913;-70
2021/12/31 11:24:34;;;;;;;;;;;22.50;99.90;;;;;;5070341;28;19956;-70
2021/12/31 11:27:21;;;;;;;;;;;22.50;99.90;;;;;;5069962;28;20422;-70
2021/12/31 11:29:47;;;;;;;;;;;22.50;99.90;;;;;;5066039;28;20389;-69
2021/12/31 11:32:15;;;;;;;;;;;22.50;99.90;;;;;;5070155;28;20011;-71
2021/12/31 11:34:42;;;;;;;;;;;22.50;99.90;;;;;;5072317;28;19920;-70
2021/12/31 11:37:09;;;;;;;;;;;22.50;99.90;;;;;;5073835;28;19908;-70
2021/12/31 11:39:38;;;;;;;;;;;22.50;99.90;;;;;;5073858;28;20294;-70
2021/12/31 11:42:06;;;;;;;;;;;22.50;99.90;;;;;;5073707;28;20005;-70
2021/12/31 11:44:34;;;;;;;;;;;22.50;99.90;;;;;;5073801;28;20402;-69
2021/12/31 11:47:14;;;;;;;;;;;22.40;99.90;;;;;;5073886;28;20390;-70
2021/12/31 11:49:41;;;;;;;;;;;22.40;99.90;;;;;;5074161;28;19913;-70
2021/12/31 11:52:10;;;;;;;;;;;22.40;99.90;;;;;;5072264;28;19913;-69
2021/12/31 11:54:39;;;;;;;;;;;22.40;99.90;;;;;;5073387;28;20381;-70
2021/12/31 11:57:10;;;;;;;;;;;22.40;99.90;;;;;;5073625;28;19927;-71
2021/12/31 11:59:38;;;;;;;;;;;22.40;99.90;;;;;;5073636;28;19915;-70
2021/12/31 12:02:15;;;;;;;;;;;22.40;99.90;;;;;;5073311;28;19957;-69
2021/12/31 12:04:44;;;;;;;;;;;22.40;99.90;;;;;;5073391;28;19908;-70
2021/12/31 12:07:16;;;;;;;;;;;22.40;99.90;;;;;;5073244;28;19908;-69
2021/12/31 12:09:43;;;;;;;;;;;22.40;99.90;;;;;;5073558;28;19928;-71
2021/12/31 12:12:17;;;;;;;;;;;22.30;99.90;;;;;;5073521;28;20282;-70
2021/12/31 12:14:45;;;;;;;;;;;22.30;99.90;;;;;;5073310;28;19924;-70
2021/12/31 12:17:13;;;;;;;;;;;22.30;99.90;;;;;;5073354;28;19993;-72
2021/12/31 12:19:46;;;;;;;;;;;22.30;99.90;;;;;;5073058;28;19908;-69
2021/12/31 12:22:32;;;;;;;;;;;22.30;99.90;;;;;;5073249;28;19999;-70
2021/12/31 12:25:04;;;;;;;;;;;22.20;99.90;;;;;;5073366;28;19912;-70
2021/12/31 12:27:30;;;;;;;;;;;22.30;99.90;;;;;;5073505;28;19909;-69
2021/12/31 12:29:57;;;;;;;;;;;22.20;99.90;;;;;;5073385;28;19920;-69
2021/12/31 12:35:23;;;;;;;;;;;22.20;99.90;;;;;;5044653;28;19932;-70
2021/12/31 12:38:00;;;;;;;;;;;22.20;99.90;;;;;;5080081;28;19915;-71
2021/12/31 12:40:41;;;;;;;;;;;22.20;99.90;;;;;;5077451;28;19913;-70
2021/12/31 12:43:12;;;;;;;;;;;22.20;99.90;;;;;;5073023;28;20351;-70
2021/12/31 12:45:41;;;;;;;;;;;22.20;99.90;;;;;;5071520;28;20251;-70
2021/12/31 12:48:08;;;;;;;;;;;22.20;99.90;;;;;;5072626;28;19908;-70
2021/12/31 12:50:35;;;;;;;;;;;22.20;99.90;;;;;;5073009;28;19919;-70
2021/12/31 12:53:02;;;;;;;;;;;22.20;99.90;;;;;;5072914;28;19952;-70
2021/12/31 12:55:29;;;;;;;;;;;22.10;99.90;;;;;;5072772;28;19913;-71
2021/12/31 12:57:58;;;;;;;;;;;22.10;99.90;;;;;;5072217;28;20037;-70
2021/12/31 13:00:32;;;;;;;;;;;22.10;99.90;;;;;;5072559;28;20435;-70
2021/12/31 13:03:06;;;;;;;;;;;22.10;99.90;;;;;;5072169;28;19908;-70
2021/12/31 13:05:33;;;;;;;;;;;22.10;99.90;;;;;;5072666;28;19909;-71
2021/12/31 13:07:59;;;;;;;;;;;22.10;99.90;;;;;;5072517;28;20270;-71
2021/12/31 13:10:26;;;;;;;;;;;22.10;99.90;;;;;;5072084;28;19925;-71
2021/12/31 13:12:54;;;;;;;;;;;22.10;99.90;;;;;;5071799;28;19916;-71
2021/12/31 13:15:21;;;;;;;;;;;22.10;99.90;;;;;;5072039;28;19908;-72
2021/12/31 13:18:02;;;;;;;;;;;22.10;99.90;;;;;;5071804;28;19983;-71
2021/12/31 13:20:29;;;;;;;;;;;22.10;99.90;;;;;;5072066;28;20499;-71
2021/12/31 13:22:57;;;;;;;;;;;22.00;99.90;;;;;;5072007;28;19962;-71
2021/12/31 13:25:56;;;;;;;;;;;22.00;99.90;;;;;;5071558;28;20359;-69
2021/12/31 13:28:24;;;;;;;;;;;22.00;99.90;;;;;;5059354;28;19991;-70
2021/12/31 13:30:54;;;;;;;;;;;22.00;99.90;;;;;;5071975;28;20362;-70
2021/12/31 13:33:26;;;;;;;;;;;22.00;99.90;;;;;;5071837;28;19923;-70
2021/12/31 13:36:11;;;;;;;;;;;22.00;99.90;;;;;;5071705;28;19913;-70
2021/12/31 13:38:56;;;;;;;;;;;22.00;99.90;;;;;;5071428;28;20294;-71
2021/12/31 13:41:23;;;;;;;;;;;21.90;99.90;;;;;;5071704;28;19912;-71
2021/12/31 13:43:53;;;;;;;;;;;22.00;99.90;;;;;;5071441;28;19931;-71
2021/12/31 13:46:27;;;;;;;;;;;21.90;99.90;;;;;;5071358;28;19959;-70
2021/12/31 13:49:11;;;;;;;;;;;21.90;99.90;;;;;;5071344;28;19912;-71
2021/12/31 13:51:39;;;;;;;;;;;21.90;99.90;;;;;;5070918;28;19955;-71
2021/12/31 13:54:06;;;;;;;;;;;21.90;99.90;;;;;;5071205;28;20315;-70
2021/12/31 13:56:34;;;;;;;;;;;21.90;99.90;;;;;;5070881;28;19931;-70
2021/12/31 13:59:17;;;;;;;;;;;21.90;99.90;;;;;;5071154;28;19908;-71
2021/12/31 14:02:03;;;;;;;;;;;21.90;99.90;;;;;;5071197;28;20350;-70
2021/12/31 14:04:31;;;;;;;;;;;21.90;99.90;;;;;;5070788;28;20008;-70
2021/12/31 14:07:14;;;;;;;;;;;21.80;99.90;;;;;;5071577;28;19913;-71
2021/12/31 14:09:41;;;;;;;;;;;21.80;99.90;;;;;;5070928;28;19924;-72
2021/12/31 14:12:08;;;;;;;;;;;21.80;99.90;;;;;;5070758;28;19912;-71
2021/12/31 14:14:36;;;;;;;;;;;21.80;99.90;;;;;;5070881;28;19921;-71
2021/12/31 14:17:03;;;;;;;;;;;21.80;99.90;;;;;;5070714;28;20347;-71
2021/12/31 14:19:33;;;;;;;;;;;21.80;99.90;;;;;;5070893;28;19920;-71
2021/12/31 14:22:03;;;;;;;;;;;21.80;99.90;;;;;;5070943;28;19916;-70
2021/12/31 14:24:32;;;;;;;;;;;21.80;99.90;;;;;;5070942;28;19962;-70
2021/12/31 14:26:59;;;;;;;;;;;21.70;99.90;;;;;;5071070;28;20381;-70
2021/12/31 14:29:27;;;;;;;;;;;21.80;99.90;;;;;;5070352;28;20374;-70
2021/12/31 14:31:54;;;;;;;;;;;21.80;99.90;;;;;;5070778;28;20371;-70